• Join FlightAware (Why Join?)
  • Login
  • US Flag 
11:42PM EDT


 

Airport Tracker/Info


-or-


 

Live Flight TrackerFlight Track Log ✈ AUB2162 ✈ 24-Apr-2013 ✈ EDDM / MUC - EDDN / NUE

Flight Track Log - Related Links

Times and Time Zones

All times are in EDT time to prevent confusion due to time zone crossing. See the AUB2162 flight status page for this flight to view local times or setup timezone preferences in your user account.

Time Position Orientation Groundspeed Altitude Reporting Facility
EDT Latitude Longitude Course Direction KTS MPH feet Rate Location/Type
03:59PM 48.6169 11.6265 338° Northwest  Level Estimated
04:00PM 48.7046 11.5729 338° Northwest  Level Estimated
04:01PM 48.7922 11.5191 338° Northwest  Level Estimated
04:02PM 48.8798 11.4652 338° Northwest  Level Estimated
04:03PM 48.9674 11.4110 338° Northwest  Level Estimated
04:04PM 49.0549 11.3567 338° Northwest  Level Estimated
04:05PM 49.1425 11.3022 338° Northwest  Level Estimated
04:06PM 49.2300 11.2474 338° Northwest  Level Estimated
04:07PM 49.3175 11.1925 338° Northwest  Level Estimated
04:08PM 49.4049 11.1374 338° Northwest  Level Estimated
04:09PM 49.4923 11.0821 338° Northwest  Level Estimated
04:10PM 49.4986 11.0781 338° Northwest  Level Estimated
04:11PM 49.4986 11.0781 327° Northwest  Level Estimated
04:12PM 49.4986 11.0781 327° Northwest  Level Estimated
04:13PM 49.4986 11.0781 327° Northwest  Level Estimated
04:14PM 49.4986 11.0781 327° Northwest  Level Estimated
04:15PM 49.4986 11.0781 327° Northwest  Level Estimated
04:16PM 49.4986 11.0781 327° Northwest  Level Estimated
04:17PM 49.4986 11.0781 327° Northwest  Level Estimated
04:18PM 49.4986 11.0781 327° Northwest  Level Estimated
04:19PM 49.4986 11.0781 327° Northwest  Level Estimated
04:20PM 49.4986 11.0781 327° Northwest  Level Estimated
04:21PM 49.4986 11.0781 327° Northwest  Level Estimated
04:22PM 49.4986 11.0781 327° Northwest  Level Estimated
04:23PM 49.4986 11.0781 327° Northwest  Level Estimated
04:24PM 49.4986 11.0781 327° Northwest  Level Estimated
04:25PM 49.4986 11.0781 327° Northwest  Level Estimated